createdAt,value
2022-08-19T00:07:07.548Z,1
2022-08-19T00:17:07.431Z,1
2022-08-19T00:27:25.753Z,1
2022-08-19T00:37:07.292Z,1
2022-08-19T00:47:07.209Z,1
2022-08-19T00:57:07.234Z,1
2022-08-19T01:07:07.072Z,1
2022-08-19T01:17:07.012Z,1
2022-08-19T01:27:06.941Z,1
2022-08-19T01:37:06.851Z,1
2022-08-19T01:47:06.780Z,1
2022-08-19T01:57:06.706Z,1
2022-08-19T02:07:06.648Z,1
2022-08-19T02:17:06.562Z,1
2022-08-19T02:37:06.406Z,1
2022-08-19T02:47:06.352Z,1
2022-08-19T02:57:06.265Z,1
2022-08-19T03:07:10.763Z,1
2022-08-19T03:17:06.139Z,1
2022-08-19T03:27:06.028Z,1
2022-08-19T03:37:05.973Z,1
2022-08-19T03:47:05.901Z,1
2022-08-19T03:57:05.821Z,1
2022-08-19T04:07:05.747Z,1
2022-08-19T04:17:05.805Z,1
2022-08-19T04:27:05.613Z,1
2022-08-19T04:37:05.535Z,1
2022-08-19T04:47:11.321Z,1
2022-08-19T04:57:05.388Z,1
2022-08-19T05:07:05.297Z,1
2022-08-19T05:17:25.980Z,1
2022-08-19T05:27:05.161Z,1
2022-08-19T05:37:05.085Z,1
2022-08-19T05:47:05.012Z,1
2022-08-19T05:57:04.937Z,1
2022-08-19T06:07:12.355Z,1
2022-08-19T06:17:07.141Z,1
2022-08-19T06:27:04.717Z,1
2022-08-19T06:37:04.653Z,1
2022-08-19T06:47:14.332Z,1
2022-08-19T06:57:04.514Z,1
2022-08-19T07:07:12.528Z,1
2022-08-19T07:17:04.351Z,1
2022-08-19T07:27:04.293Z,1
2022-08-19T07:37:04.211Z,1
2022-08-19T07:47:04.147Z,1
2022-08-19T07:57:04.079Z,1
2022-08-19T08:07:03.992Z,1
2022-08-19T08:17:03.923Z,1
2022-08-19T08:27:03.896Z,1
2022-08-19T08:37:03.779Z,1
2022-08-19T08:47:03.708Z,1
2022-08-19T08:57:03.639Z,1
2022-08-19T09:07:03.568Z,1
2022-08-19T09:17:03.483Z,1
2022-08-19T09:27:18.571Z,1
2022-08-19T09:37:03.342Z,1
2022-08-19T09:47:03.273Z,1
2022-08-19T09:57:03.782Z,1
2022-08-19T10:07:03.113Z,1
2022-08-19T10:17:18.055Z,1
2022-08-19T10:27:02.970Z,1
2022-08-19T10:37:02.904Z,1
2022-08-19T10:47:02.832Z,1
2022-08-19T10:57:02.775Z,1
2022-08-19T11:07:02.835Z,1
2022-08-19T11:17:02.597Z,1
2022-08-19T11:27:02.546Z,1
2022-08-19T11:37:02.471Z,1
2022-08-19T11:47:08.962Z,1
2022-08-19T11:57:02.317Z,1
2022-08-19T12:07:02.249Z,1
2022-08-19T12:17:02.181Z,1
2022-08-19T12:27:02.913Z,99
2022-08-19T12:37:02.044Z,99
2022-08-19T12:47:01.965Z,99
2022-08-19T12:57:01.987Z,99
2022-08-19T13:07:01.874Z,99
2022-08-19T13:17:01.759Z,99
2022-08-19T13:27:01.678Z,99
2022-08-19T13:37:01.597Z,99
2022-08-19T13:47:01.547Z,99
2022-08-19T13:57:01.455Z,99
2022-08-19T14:07:01.408Z,87
2022-08-19T14:17:01.314Z,99
2022-08-19T14:27:01.254Z,96
2022-08-19T14:37:01.167Z,88
2022-08-19T14:47:01.099Z,74
2022-08-19T14:57:01.027Z,76
2022-08-19T15:07:00.984Z,72
2022-08-19T15:17:01.026Z,73
2022-08-19T15:27:00.791Z,56
2022-08-19T15:37:00.720Z,64
2022-08-19T15:47:00.661Z,73
2022-08-19T15:57:00.568Z,68
2022-08-19T16:07:00.518Z,58
2022-08-19T16:17:00.448Z,41
2022-08-19T16:27:00.361Z,38
2022-08-19T16:37:00.292Z,37
2022-08-19T16:47:00.229Z,26
2022-08-19T16:57:00.260Z,27
2022-08-19T17:07:00.086Z,59
2022-08-19T17:17:00.007Z,69
2022-08-19T17:26:59.928Z,99
2022-08-19T17:36:59.845Z,99
2022-08-19T17:46:59.773Z,99
2022-08-19T17:56:59.713Z,99
2022-08-19T18:06:59.641Z,99
2022-08-19T18:16:59.561Z,99
2022-08-19T18:26:59.491Z,99
2022-08-19T18:36:59.428Z,99
2022-08-19T18:46:59.412Z,99
2022-08-19T18:56:59.281Z,99
2022-08-19T19:06:59.196Z,99
2022-08-19T19:16:59.143Z,99
2022-08-19T19:26:59.065Z,1
2022-08-19T19:36:58.991Z,1
2022-08-19T19:46:58.923Z,1
2022-08-19T19:56:58.841Z,1
2022-08-19T20:06:58.881Z,1
2022-08-19T20:16:58.679Z,1
2022-08-19T20:26:58.626Z,1
2022-08-19T20:36:58.549Z,1
2022-08-19T20:47:02.978Z,1
2022-08-19T20:56:58.391Z,1
2022-08-19T21:06:58.313Z,1
2022-08-19T21:16:58.238Z,1
2022-08-19T21:26:58.168Z,1
2022-08-19T21:36:58.099Z,1
2022-08-19T21:46:58.012Z,1
2022-08-19T21:56:57.950Z,1
2022-08-19T22:06:57.963Z,1
2022-08-19T22:16:57.794Z,1
2022-08-19T22:26:57.734Z,1
2022-08-19T23:02:29.997Z,1
